Time;durP1;ratioP1;P1;durP2;ratioP2;P2;SDS_P1;SDS_P2;PMS_P1;PMS_P2;Temp;Humidity;BMP_temperature;BMP_pressure;BME280_temperature;BME280_humidity;BME280_pressure;Samples;Min_cycle;Max_cycle;Signal;HPM_P1;HPM_P2
2020/12/27 00:01:56;;;;;;;3.97;3.60;;;5.80;99.90;;;-146.47;100.00;66290.13;4938763;29;20262;-78
2020/12/27 00:04:42;;;;;;;4.60;4.30;;;5.80;99.90;;;-146.47;100.00;66290.13;4950056;28;20760;-78
2020/12/27 00:07:27;;;;;;;4.30;3.90;;;5.80;99.90;;;-146.47;100.00;66290.13;4938912;29;20627;-78
2020/12/27 00:10:12;;;;;;;4.80;4.40;;;5.80;99.90;;;-146.47;100.00;66290.13;4949033;29;20210;-79
2020/12/27 00:12:57;;;;;;;4.10;3.80;;;5.80;99.90;;;-146.47;100.00;66290.13;4947141;28;20281;-78
2020/12/27 00:15:43;;;;;;;4.40;4.00;;;5.80;99.90;;;-146.47;100.00;66290.13;4947993;29;20255;-78
2020/12/27 00:18:29;;;;;;;5.00;4.47;;;5.80;99.90;;;-146.47;100.00;66290.13;4935266;28;20214;-77
2020/12/27 00:21:14;;;;;;;4.97;4.07;;;5.80;99.90;;;-146.47;100.00;66290.13;4935325;29;20239;-78
2020/12/27 00:23:59;;;;;;;4.23;3.80;;;5.80;99.90;;;-146.47;100.00;66290.13;4933615;28;20233;-78
2020/12/27 00:26:44;;;;;;;4.00;3.70;;;5.80;99.90;;;-146.47;100.00;66290.13;4934182;29;20211;-79
2020/12/27 00:29:29;;;;;;;3.87;3.57;;;5.80;99.90;;;-146.47;100.00;66290.13;4935064;29;20575;-79
2020/12/27 00:32:15;;;;;;;4.67;3.93;;;5.80;99.90;;;-146.47;100.00;66290.13;4934215;29;20206;-78
2020/12/27 00:35:02;;;;;;;4.27;3.70;;;5.80;99.90;;;-146.47;100.00;66290.13;4933890;29;20286;-78
2020/12/27 00:37:47;;;;;;;4.20;3.90;;;5.80;99.90;;;-146.47;100.00;66290.13;4941094;29;20645;-79
2020/12/27 00:40:32;;;;;;;4.23;3.90;;;5.80;99.90;;;-146.47;100.00;66290.13;4951670;29;20221;-79
2020/12/27 00:43:17;;;;;;;4.50;4.10;;;5.70;99.90;;;-146.47;100.00;66290.13;4943501;29;20242;-78
2020/12/27 00:46:03;;;;;;;4.03;3.67;;;5.70;99.90;;;-146.47;100.00;66290.13;4939216;29;20223;-78
2020/12/27 00:48:49;;;;;;;4.37;3.80;;;5.80;99.90;;;-146.47;100.00;66290.13;4953394;28;20238;-78
2020/12/27 00:51:34;;;;;;;4.20;3.80;;;5.80;99.90;;;-146.47;100.00;66290.13;4945492;29;20215;-78
2020/12/27 00:54:19;;;;;;;3.80;3.50;;;5.80;99.90;;;-146.47;100.00;66290.13;4934652;29;20249;-78
2020/12/27 00:57:04;;;;;;;3.80;3.50;;;5.80;99.90;;;-146.47;100.00;66290.13;4935472;29;20222;-79
2020/12/27 00:59:49;;;;;;;4.30;3.90;;;5.80;99.90;;;-146.47;100.00;66290.13;4935696;29;20631;-79
2020/12/27 01:02:35;;;;;;;4.10;3.57;;;5.80;99.90;;;-146.47;100.00;66290.13;4937309;28;20234;-79
2020/12/27 01:05:21;;;;;;;4.33;3.77;;;5.80;99.90;;;-146.47;100.00;66290.13;4944739;29;20214;-78
2020/12/27 01:08:06;;;;;;;4.00;3.47;;;5.80;99.90;;;-146.47;100.00;66290.13;4949697;29;20209;-79
2020/12/27 01:10:51;;;;;;;3.87;3.57;;;5.80;99.90;;;-146.47;100.00;66290.13;4944732;29;20584;-79
2020/12/27 01:13:37;;;;;;;6.00;3.73;;;5.80;99.90;;;-146.47;100.00;66290.13;4937154;29;20234;-79
2020/12/27 01:16:23;;;;;;;4.00;3.70;;;5.80;99.90;;;-146.47;100.00;66290.13;4947358;29;20273;-78
2020/12/27 01:19:07;;;;;;;3.80;3.50;;;5.80;99.90;;;-146.47;100.00;66290.13;4952377;29;20233;-77
2020/12/27 01:21:55;;;;;;;3.93;3.53;;;5.80;99.90;;;-146.47;100.00;66290.13;4954263;29;20239;-78
2020/12/27 01:24:39;;;;;;;4.13;3.73;;;5.80;99.90;;;-146.47;100.00;66290.13;4952363;29;20263;-77
2020/12/27 01:27:25;;;;;;;4.37;3.97;;;5.80;99.90;;;-146.47;100.00;66290.13;4947932;29;20234;-78
2020/12/27 01:30:10;;;;;;;3.90;3.60;;;5.80;99.90;;;-146.47;100.00;66290.13;4959535;29;20246;-78
2020/12/27 01:32:55;;;;;;;4.37;3.90;;;5.70;99.90;;;-146.47;100.00;66290.13;4945425;29;20354;-76
2020/12/27 01:35:44;;;;;;;4.03;3.73;;;5.70;99.90;;;-146.47;100.00;66290.13;4934791;29;20341;-79
2020/12/27 01:38:30;;;;;;;4.30;3.90;;;5.70;99.90;;;-146.47;100.00;66290.13;4946303;29;20991;-78
2020/12/27 01:41:15;;;;;;;4.03;3.63;;;5.70;99.90;;;-146.47;100.00;66290.13;4941486;29;20720;-79
2020/12/27 01:44:07;;;;;;;5.37;4.53;;;5.70;99.90;;;-146.47;100.00;66290.13;4939009;29;20234;-78
2020/12/27 01:46:52;;;;;;;5.00;4.20;;;5.70;99.90;;;-146.47;100.00;66290.13;4956630;29;20218;-79
2020/12/27 01:49:37;;;;;;;6.00;4.30;;;5.70;99.90;;;-146.47;100.00;66290.13;4944571;29;20221;-77
2020/12/27 01:52:22;;;;;;;4.90;4.50;;;5.70;99.90;;;-146.47;100.00;66290.13;4941920;29;20210;-78
2020/12/27 01:55:09;;;;;;;5.47;3.80;;;5.70;99.90;;;-146.47;100.00;66290.13;4946087;29;20206;-78
2020/12/27 01:58:18;;;;;;;4.97;4.17;;;5.70;99.90;;;-146.47;100.00;66290.13;4949325;29;20219;-79
2020/12/27 02:01:03;;;;;;;5.70;5.00;;;5.70;99.90;;;-146.47;100.00;66290.13;4947242;29;20691;-78
2020/12/27 02:03:50;;;;;;;5.20;4.40;;;5.70;99.90;;;-146.47;100.00;66290.13;4932622;29;20238;-78
2020/12/27 02:06:35;;;;;;;4.60;4.20;;;5.70;99.90;;;-146.47;100.00;66290.13;4947392;29;20206;-77
2020/12/27 02:09:20;;;;;;;5.13;4.63;;;5.60;99.90;;;-146.47;100.00;66290.13;4936109;29;20339;-78
2020/12/27 02:12:08;;;;;;;5.33;4.57;;;5.70;99.90;;;-146.47;100.00;66290.13;4942300;29;20206;-78
2020/12/27 02:14:54;;;;;;;6.80;4.70;;;5.70;99.90;;;-146.47;100.00;66290.13;4955809;28;20225;-78
2020/12/27 02:17:39;;;;;;;6.30;4.90;;;5.60;99.90;;;-146.47;100.00;66290.13;4938875;29;20214;-78
2020/12/27 02:20:24;;;;;;;5.13;4.63;;;5.60;99.90;;;-146.47;100.00;66290.13;4940481;29;20777;-79
2020/12/27 02:23:13;;;;;;;4.60;4.20;;;5.60;99.90;;;-146.47;100.00;66290.13;4953907;28;20771;-78
2020/12/27 02:25:59;;;;;;;6.10;4.73;;;5.60;99.90;;;-146.47;100.00;66290.13;4938731;29;20220;-77
2020/12/27 02:28:44;;;;;;;5.53;4.17;;;5.60;99.90;;;-146.47;100.00;66290.13;4940333;29;20219;-78
2020/12/27 02:31:29;;;;;;;5.77;5.17;;;5.60;99.90;;;-146.47;100.00;66290.13;4947313;29;20258;-78
2020/12/27 02:34:15;;;;;;;6.73;4.63;;;5.60;99.90;;;-146.47;100.00;66290.13;4945621;29;20234;-78
2020/12/27 02:36:59;;;;;;;5.83;5.10;;;5.70;99.90;;;-146.47;100.00;66290.13;4955612;29;20569;-78
2020/12/27 02:39:45;;;;;;;5.60;5.00;;;5.70;99.90;;;-146.47;100.00;66290.13;4936940;29;20257;-78
2020/12/27 02:42:31;;;;;;;6.07;4.30;;;5.60;99.90;;;-146.47;100.00;66290.13;4936902;29;20222;-78
2020/12/27 02:45:18;;;;;;;4.63;4.20;;;5.60;99.90;;;-146.47;100.00;66290.13;4936027;29;20839;-78
2020/12/27 02:48:03;;;;;;;5.60;4.30;;;5.60;99.90;;;-146.47;100.00;66290.13;4937042;29;20815;-77
2020/12/27 02:50:48;;;;;;;6.43;4.67;;;5.60;99.90;;;-146.47;100.00;66290.13;4942641;29;20237;-78
2020/12/27 02:53:33;;;;;;;5.30;4.43;;;5.60;99.90;;;-146.47;100.00;66290.13;4954987;29;20226;-79
2020/12/27 02:56:19;;;;;;;6.57;5.17;;;5.60;99.90;;;-146.47;100.00;66290.13;4953993;29;20218;-78
2020/12/27 02:59:05;;;;;;;6.40;5.03;;;5.60;99.90;;;-146.47;100.00;66290.13;4942660;29;20215;-78
2020/12/27 03:01:50;;;;;;;5.33;4.23;;;5.70;99.90;;;-146.47;100.00;66290.13;4944753;29;20246;-78
2020/12/27 03:04:35;;;;;;;4.93;4.43;;;5.60;99.90;;;-146.47;100.00;66290.13;4937410;29;20310;-78
2020/12/27 03:07:20;;;;;;;5.67;4.43;;;5.60;99.90;;;-146.47;100.00;66290.13;4942231;29;20260;-78
2020/12/27 03:10:06;;;;;;;6.77;4.50;;;5.60;99.90;;;-146.47;100.00;66290.13;4939701;29;20203;-78
2020/12/27 03:12:51;;;;;;;4.93;4.33;;;5.60;99.90;;;-146.47;100.00;66290.13;4936403;29;20235;-78
2020/12/27 03:15:37;;;;;;;5.23;4.63;;;5.60;99.90;;;-146.47;100.00;66290.13;4936695;29;20262;-77
2020/12/27 03:18:22;;;;;;;5.43;4.93;;;5.60;99.90;;;-146.47;100.00;66290.13;4936217;29;20226;-78
2020/12/27 03:21:07;;;;;;;6.37;4.80;;;5.60;99.90;;;-146.47;100.00;66290.13;4935401;29;20254;-78
2020/12/27 03:23:53;;;;;;;5.70;3.90;;;5.60;99.90;;;-146.47;100.00;66290.13;4939588;29;20322;-78
2020/12/27 03:26:38;;;;;;;5.33;4.70;;;5.60;99.90;;;-146.47;100.00;66290.13;4935811;28;20280;-79
2020/12/27 03:29:23;;;;;;;5.40;4.60;;;5.60;99.90;;;-146.47;100.00;66290.13;4936391;29;20239;-79
2020/12/27 03:32:09;;;;;;;5.07;4.13;;;5.60;99.90;;;-146.47;100.00;66290.13;4949251;29;20209;-79
2020/12/27 03:34:54;;;;;;;4.67;4.27;;;5.60;99.90;;;-146.47;100.00;66290.13;4945374;29;20253;-78
2020/12/27 03:37:39;;;;;;;4.43;3.80;;;5.60;99.90;;;-146.47;100.00;66290.13;4934083;29;20281;-79
2020/12/27 03:40:25;;;;;;;4.70;3.90;;;5.60;99.90;;;-146.47;100.00;66290.13;4947821;29;20350;-78
2020/12/27 03:43:10;;;;;;;4.63;4.13;;;5.60;99.90;;;-146.47;100.00;66290.13;4933937;29;20264;-78
2020/12/27 03:45:55;;;;;;;4.97;4.13;;;5.60;99.90;;;-146.47;100.00;66290.13;4937906;28;20659;-78
2020/12/27 03:48:41;;;;;;;4.93;4.13;;;5.60;99.90;;;-146.47;100.00;66290.13;4942668;29;20242;-78
2020/12/27 03:51:26;;;;;;;4.50;4.10;;;5.60;99.90;;;-146.47;100.00;66290.13;4934516;29;20206;-77
2020/12/27 03:54:11;;;;;;;5.97;4.40;;;5.50;99.90;;;-146.47;100.00;66290.13;4948781;29;20238;-77
2020/12/27 03:56:56;;;;;;;5.80;4.43;;;5.50;99.90;;;-146.47;100.00;66290.13;4953940;29;20217;-78
2020/12/27 03:59:42;;;;;;;4.83;4.37;;;5.50;99.90;;;-146.47;100.00;66290.13;4940360;29;20305;-77
2020/12/27 04:02:28;;;;;;;6.00;4.03;;;5.50;99.90;;;-146.47;100.00;66290.13;4942912;28;20757;-77
2020/12/27 04:05:14;;;;;;;5.13;4.20;;;5.50;99.90;;;-146.47;100.00;66290.13;4942344;29;20213;-78
2020/12/27 04:07:59;;;;;;;4.93;4.10;;;5.50;99.90;;;-146.47;100.00;66290.13;4950332;29;20274;-77
2020/12/27 04:10:44;;;;;;;5.10;4.60;;;5.50;99.90;;;-146.47;100.00;66290.13;4944103;29;20205;-77
2020/12/27 04:13:29;;;;;;;3.90;3.43;;;5.50;99.90;;;-146.47;100.00;66290.13;4949957;29;20266;-78
2020/12/27 04:16:15;;;;;;;6.53;4.50;;;5.50;99.90;;;-146.47;100.00;66290.13;4946772;29;20221;-77
2020/12/27 04:19:00;;;;;;;4.20;3.80;;;5.50;99.90;;;-146.47;100.00;66290.13;4934383;29;20214;-78
2020/12/27 04:21:47;;;;;;;4.10;3.77;;;5.60;99.90;;;-146.47;100.00;66290.13;4950818;29;20213;-77
2020/12/27 04:24:32;;;;;;;6.27;4.17;;;5.60;99.90;;;-146.47;100.00;66290.13;4952510;29;20734;-77
2020/12/27 04:27:17;;;;;;;4.47;3.97;;;5.60;99.90;;;-146.47;100.00;66290.13;4944285;29;20286;-77
2020/12/27 04:30:03;;;;;;;4.30;3.90;;;5.60;99.90;;;-146.47;100.00;66290.13;4935401;29;20255;-77
2020/12/27 04:32:48;;;;;;;4.20;3.63;;;5.60;99.90;;;-146.47;100.00;66290.13;4952293;28;20740;-76
2020/12/27 04:35:33;;;;;;;3.53;3.27;;;5.60;99.90;;;-146.47;100.00;66290.13;4935016;29;20207;-76
2020/12/27 04:38:19;;;;;;;4.07;3.67;;;5.60;99.90;;;-146.47;100.00;66290.13;4947332;29;20250;-77
2020/12/27 04:41:05;;;;;;;5.27;4.03;;;5.70;99.90;;;-146.47;100.00;66290.13;4940807;29;20226;-77
2020/12/27 04:43:51;;;;;;;4.80;3.60;;;5.60;99.90;;;-146.47;100.00;66290.13;4951981;28;20229;-76
2020/12/27 04:46:39;;;;;;;4.33;3.63;;;5.70;99.90;;;-146.47;100.00;66290.13;4952947;29;20238;-77
2020/12/27 04:49:26;;;;;;;3.77;3.30;;;5.70;99.90;;;-146.47;100.00;66290.13;4952208;28;20253;-76
2020/12/27 04:52:12;;;;;;;4.57;3.63;;;5.70;99.90;;;-146.47;100.00;66290.13;4938750;29;20286;-78
2020/12/27 04:54:58;;;;;;;3.70;3.40;;;5.70;99.90;;;-146.47;100.00;66290.13;4949073;29;20236;-77
2020/12/27 04:57:48;;;;;;;3.90;3.60;;;5.70;99.90;;;-146.47;100.00;66290.13;4936915;29;20289;-76
2020/12/27 05:00:32;;;;;;;3.47;3.20;;;5.70;99.90;;;-146.47;100.00;66290.13;4939809;29;20222;-78
2020/12/27 05:03:18;;;;;;;4.00;3.03;;;5.70;99.90;;;-146.47;100.00;66290.13;4934578;29;20238;-76
2020/12/27 05:06:03;;;;;;;3.20;3.00;;;5.80;99.90;;;-146.47;100.00;66290.13;4945904;29;20218;-77
2020/12/27 05:08:48;;;;;;;3.60;3.30;;;5.80;99.90;;;-146.47;100.00;66290.13;4943788;29;20229;-76
2020/12/27 05:11:35;;;;;;;2.40;2.20;;;5.80;99.90;;;-146.47;100.00;66290.13;4949976;29;20257;-77
2020/12/27 05:14:22;;;;;;;3.07;2.77;;;5.80;99.90;;;-146.47;100.00;66290.13;4936103;29;20238;-76
2020/12/27 05:17:07;;;;;;;3.40;3.00;;;5.80;99.90;;;-146.47;100.00;66290.13;4950214;29;20214;-76
2020/12/27 05:19:53;;;;;;;3.73;3.00;;;5.80;99.90;;;-146.47;100.00;66290.13;4935575;29;20226;-76
2020/12/27 05:22:39;;;;;;;2.80;2.60;;;5.80;99.90;;;-146.47;100.00;66290.13;4943473;29;20374;-76
2020/12/27 05:25:25;;;;;;;3.03;2.83;;;5.80;99.90;;;-146.47;100.00;66290.13;4951662;29;20214;-76
2020/12/27 05:28:12;;;;;;;3.17;2.87;;;5.80;99.90;;;-146.47;100.00;66290.13;4938110;29;20242;-77
2020/12/27 05:30:57;;;;;;;3.13;2.77;;;5.80;99.90;;;-146.47;100.00;66290.13;4952522;29;20313;-77
2020/12/27 05:33:42;;;;;;;3.10;2.80;;;5.80;99.90;;;-146.47;100.00;66290.13;4937755;29;20254;-78
2020/12/27 05:36:28;;;;;;;2.90;2.70;;;5.80;99.90;;;-146.47;100.00;66290.13;4939909;29;20299;-78
2020/12/27 05:39:15;;;;;;;3.80;2.80;;;5.70;99.90;;;-146.47;100.00;66290.13;4934132;29;20675;-78
2020/12/27 05:42:02;;;;;;;3.20;2.57;;;5.70;99.90;;;-146.47;100.00;66290.13;4935223;28;20209;-77
2020/12/27 05:44:48;;;;;;;4.10;2.70;;;5.70;99.90;;;-146.47;100.00;66290.13;4935467;29;20271;-78
2020/12/27 05:47:34;;;;;;;3.10;2.80;;;5.70;99.90;;;-146.47;100.00;66290.13;4939685;29;20271;-78
2020/12/27 05:50:19;;;;;;;4.07;2.50;;;5.60;99.90;;;-146.47;100.00;66290.13;4949630;29;20266;-77
2020/12/27 05:53:16;;;;;;;3.00;2.70;;;5.60;99.90;;;-146.47;100.00;66290.13;4944808;29;20237;-78
2020/12/27 05:56:08;;;;;;;2.40;2.20;;;5.60;99.90;;;-146.47;100.00;66290.13;4937891;29;20207;-77
2020/12/27 05:59:00;;;;;;;2.70;2.50;;;5.50;99.90;;;-146.47;100.00;66290.13;4948486;29;20291;-77
2020/12/27 06:01:55;;;;;;;2.10;2.00;;;5.50;99.90;;;-146.47;100.00;66290.13;4943827;29;20270;-76
2020/12/27 06:05:14;;;;;;;2.30;2.20;;;5.50;99.90;;;-146.47;100.00;66290.13;4949412;28;20235;-77
2020/12/27 06:08:54;;;;;;;2.60;2.40;;;5.40;99.90;;;-146.47;100.00;66290.13;4949644;29;20223;-76
2020/12/27 06:11:54;;;;;;;2.33;2.20;;;5.40;99.90;;;-146.47;100.00;66290.13;4937219;29;20296;-76
2020/12/27 06:14:41;;;;;;;2.63;2.17;;;5.40;99.90;;;-146.47;100.00;66290.13;4941095;29;20271;-77
2020/12/27 06:17:56;;;;;;;2.90;2.10;;;5.40;99.90;;;-146.47;100.00;66290.13;4938214;29;20207;-77
2020/12/27 06:20:43;;;;;;;2.60;2.00;;;5.30;99.90;;;-146.47;100.00;66290.13;4952239;28;20361;-76
2020/12/27 06:23:32;;;;;;;1.80;1.70;;;5.30;99.90;;;-146.47;100.00;66290.13;4942907;28;20233;-77
2020/12/27 06:26:19;;;;;;;2.00;1.90;;;5.30;99.90;;;-146.47;100.00;66290.13;4936915;29;20232;-76
2020/12/27 06:29:04;;;;;;;1.87;1.77;;;5.30;99.90;;;-146.47;100.00;66290.13;4941830;29;20767;-76
2020/12/27 06:31:53;;;;;;;2.20;2.00;;;5.30;99.90;;;-146.47;100.00;66290.13;4940762;29;20218;-77
2020/12/27 06:34:39;;;;;;;2.20;2.10;;;5.30;99.90;;;-146.47;100.00;66290.13;4953998;29;20234;-77
2020/12/27 06:37:24;;;;;;;2.60;2.00;;;5.30;99.90;;;-146.47;100.00;66290.13;4941332;29;20214;-77
2020/12/27 06:40:10;;;;;;;3.67;1.83;;;5.40;99.90;;;-146.47;100.00;66290.13;4940379;29;20230;-77
2020/12/27 06:43:19;;;;;;;2.20;2.10;;;5.30;99.90;;;-146.47;100.00;66290.13;4934914;29;20652;-76
2020/12/27 06:46:24;;;;;;;2.00;1.90;;;5.30;99.90;;;-146.47;100.00;66290.13;4941459;29;20214;-77
2020/12/27 06:49:12;;;;;;;3.83;2.33;;;5.30;99.90;;;-146.47;100.00;66290.13;4950585;29;20218;-79
2020/12/27 06:52:18;;;;;;;2.10;2.00;;;5.30;99.90;;;-146.47;100.00;66290.13;4941200;29;20233;-76
2020/12/27 06:55:03;;;;;;;2.20;2.00;;;5.40;99.90;;;-146.47;100.00;66290.13;4945429;28;20218;-77
2020/12/27 06:57:49;;;;;;;2.00;1.80;;;5.30;99.90;;;-146.47;100.00;66290.13;4952970;29;20685;-78
2020/12/27 07:00:34;;;;;;;1.70;1.60;;;5.30;99.90;;;-146.47;100.00;66290.13;4939917;29;20249;-78
2020/12/27 07:03:21;;;;;;;2.00;1.90;;;5.40;99.90;;;-146.47;100.00;66290.13;4933718;29;20307;-78
2020/12/27 07:06:22;;;;;;;1.97;1.87;;;5.40;99.90;;;-146.47;100.00;66290.13;4949176;29;20239;-78
2020/12/27 07:09:08;;;;;;;2.30;2.10;;;5.40;99.90;;;-146.47;100.00;66290.13;4939615;29;20215;-78
2020/12/27 07:12:05;;;;;;;2.17;2.07;;;5.40;99.90;;;-146.47;100.00;66290.13;4936667;29;20627;-77
2020/12/27 07:14:52;;;;;;;3.63;2.00;;;5.40;99.90;;;-146.47;100.00;66290.13;4934512;29;20908;-77
2020/12/27 07:17:40;;;;;;;2.30;2.10;;;5.40;99.90;;;-146.47;100.00;66290.13;4936356;28;20237;-78
2020/12/27 07:20:31;;;;;;;1.97;1.87;;;5.40;99.90;;;-146.47;100.00;66290.13;4934744;29;20253;-78
2020/12/27 07:23:20;;;;;;;1.77;1.67;;;5.40;99.90;;;-146.47;100.00;66290.13;4947472;28;20242;-78
2020/12/27 07:26:11;;;;;;;2.23;2.00;;;5.50;99.90;;;-146.47;100.00;66290.13;4935174;29;20255;-77
2020/12/27 07:29:00;;;;;;;1.90;1.80;;;5.40;99.90;;;-146.47;100.00;66290.13;4934969;29;20214;-77
2020/12/27 07:31:47;;;;;;;1.90;1.80;;;5.50;99.90;;;-146.47;100.00;66290.13;4934354;29;20207;-78
2020/12/27 07:34:33;;;;;;;1.90;1.80;;;5.50;99.90;;;-146.47;100.00;66290.13;4933721;29;20222;-77
2020/12/27 07:37:27;;;;;;;2.23;2.13;;;5.50;99.90;;;-146.47;100.00;66290.13;4952825;29;20209;-78
2020/12/27 07:40:12;;;;;;;2.20;2.00;;;5.50;99.90;;;-146.47;100.00;66290.13;4952475;29;20272;-78
2020/12/27 07:42:59;;;;;;;1.70;1.60;;;5.50;99.90;;;-146.47;100.00;66290.13;4934442;29;20238;-77
2020/12/27 07:45:44;;;;;;;2.20;2.00;;;5.50;99.90;;;-146.47;100.00;66290.13;4934573;29;20432;-77
2020/12/27 07:48:30;;;;;;;2.10;2.00;;;5.60;99.90;;;-146.47;100.00;66290.13;4948264;28;20222;-77
2020/12/27 07:51:16;;;;;;;2.10;1.93;;;5.50;99.90;;;-146.47;100.00;66290.13;4956955;29;20337;-76
2020/12/27 07:54:03;;;;;;;1.87;1.77;;;5.60;99.90;;;-146.47;100.00;66290.13;4945741;29;20566;-77
2020/12/27 07:56:48;;;;;;;2.20;2.10;;;5.60;99.90;;;-146.47;100.00;66290.13;4962925;29;20209;-77
2020/12/27 07:59:34;;;;;;;1.87;1.77;;;5.60;99.90;;;-146.47;100.00;66290.13;4954193;29;20969;-78
2020/12/27 08:02:19;;;;;;;2.10;2.00;;;5.60;99.90;;;-146.47;100.00;66290.13;4943088;29;20939;-78
2020/12/27 08:05:04;;;;;;;2.53;2.30;;;5.60;99.90;;;-146.47;100.00;66290.13;4942826;29;20238;-78
2020/12/27 08:07:53;;;;;;;1.87;1.77;;;5.60;99.90;;;-146.47;100.00;66290.13;4935300;29;20604;-78
2020/12/27 08:10:39;;;;;;;2.47;2.00;;;5.60;99.90;;;-146.47;100.00;66290.13;4934192;29;20790;-77
2020/12/27 08:13:24;;;;;;;2.17;1.97;;;5.60;99.90;;;-146.47;100.00;66290.13;4939962;29;20843;-78
2020/12/27 08:16:11;;;;;;;1.77;1.67;;;5.60;99.90;;;-146.47;100.00;66290.13;4935950;29;20223;-78
2020/12/27 08:19:07;;;;;;;1.60;1.50;;;5.70;99.90;;;-146.47;100.00;66290.13;4937396;28;20229;-78
2020/12/27 08:22:00;;;;;;;1.70;1.60;;;5.70;99.90;;;-146.47;100.00;66290.13;4946698;28;20215;-78
2020/12/27 08:24:45;;;;;;;1.30;1.30;;;5.70;99.90;;;-146.47;100.00;66290.13;4940543;29;20214;-79
2020/12/27 08:27:30;;;;;;;1.90;1.80;;;5.70;99.90;;;-146.47;100.00;66290.13;4949313;28;20213;-78
2020/12/27 08:30:17;;;;;;;1.80;1.50;;;5.70;99.90;;;-146.47;100.00;66290.13;4938813;28;20201;-78
2020/12/27 08:33:10;;;;;;;1.73;1.60;;;5.80;99.90;;;-146.47;100.00;66290.13;4944278;28;20759;-81
2020/12/27 08:35:57;;;;;;;1.60;1.50;;;5.80;99.90;;;-146.47;100.00;66290.13;4944703;28;20211;-79
2020/12/27 08:38:52;;;;;;;1.13;1.13;;;5.90;99.90;;;-146.47;100.00;66290.13;4935995;28;20235;-78
2020/12/27 08:41:43;;;;;;;1.73;1.20;;;5.90;99.90;;;-146.47;100.00;66290.13;4937932;28;20611;-79
2020/12/27 08:44:49;;;;;;;1.50;1.50;;;6.00;99.90;;;-146.47;100.00;66290.13;4946881;28;20579;-79
2020/12/27 08:47:47;;;;;;;1.83;1.73;;;6.00;99.90;;;-146.47;100.00;66290.13;4950165;29;20209;-79
2020/12/27 08:50:37;;;;;;;1.57;1.47;;;6.10;99.90;;;-146.47;100.00;66290.13;4944061;28;20202;-79
2020/12/27 08:53:23;;;;;;;1.50;1.40;;;6.10;99.90;;;-146.47;100.00;66290.13;4948961;29;20274;-79
2020/12/27 08:56:10;;;;;;;1.30;1.30;;;6.10;99.90;;;-146.47;100.00;66290.13;4947761;29;20318;-78
2020/12/27 08:58:55;;;;;;;1.77;1.67;;;6.10;99.90;;;-146.47;100.00;66290.13;4948145;28;20809;-78
2020/12/27 09:01:41;;;;;;;1.87;1.67;;;6.10;99.90;;;-146.47;100.00;66290.13;4947511;29;20210;-78
2020/12/27 09:04:26;;;;;;;1.90;1.80;;;6.10;99.90;;;-146.47;100.00;66290.13;4942748;29;20222;-78
2020/12/27 09:07:12;;;;;;;1.70;1.70;;;6.10;99.90;;;-146.47;100.00;66290.13;4947374;29;20342;-79
2020/12/27 09:10:08;;;;;;;1.60;1.50;;;6.10;99.90;;;-146.47;100.00;66290.13;4947395;29;20253;-78
2020/12/27 09:12:59;;;;;;;1.87;1.80;;;6.10;99.90;;;-146.47;100.00;66290.13;4936291;28;20231;-78
2020/12/27 09:15:46;;;;;;;2.17;1.97;;;6.10;99.90;;;-146.47;100.00;66290.13;4944607;29;20217;-78
2020/12/27 09:18:34;;;;;;;1.73;1.70;;;6.10;99.90;;;-146.47;100.00;66290.13;4947666;28;20709;-78
2020/12/27 09:21:19;;;;;;;2.10;2.00;;;6.10;99.90;;;-146.47;100.00;66290.13;4953425;28;20309;-78
2020/12/27 09:24:13;;;;;;;2.23;1.70;;;6.10;99.90;;;-146.47;100.00;66290.13;4952640;28;20226;-79
2020/12/27 09:27:07;;;;;;;1.77;1.67;;;6.10;99.90;;;-146.47;100.00;66290.13;4952542;29;20245;-78
2020/12/27 09:30:00;;;;;;;1.97;1.87;;;6.00;99.90;;;-146.47;100.00;66290.13;4949350;29;20237;-76
2020/12/27 09:32:46;;;;;;;1.90;1.80;;;6.00;99.90;;;-146.47;100.00;66290.13;4951376;28;20659;-77
2020/12/27 09:35:31;;;;;;;1.50;1.50;;;6.00;99.90;;;-146.47;100.00;66290.13;4950231;29;20218;-79
2020/12/27 09:38:28;;;;;;;1.80;1.70;;;6.00;99.90;;;-146.47;100.00;66290.13;4941673;28;20218;-79
2020/12/27 09:41:17;;;;;;;1.70;1.60;;;6.00;99.90;;;-146.47;100.00;66290.13;4953421;29;20222;-78
2020/12/27 09:44:03;;;;;;;1.80;1.70;;;6.00;99.90;;;-146.47;100.00;66290.13;4951066;29;20649;-78
2020/12/27 09:46:51;;;;;;;1.80;1.70;;;6.10;99.90;;;-146.47;100.00;66290.13;4950324;28;20297;-79
2020/12/27 09:49:36;;;;;;;1.97;1.87;;;6.10;99.90;;;-146.47;100.00;66290.13;4960242;28;20368;-79
2020/12/27 09:52:21;;;;;;;3.27;2.00;;;6.10;99.90;;;-146.47;100.00;66290.13;4948312;28;20266;-79
2020/12/27 09:55:07;;;;;;;1.50;1.40;;;6.10;99.90;;;-146.47;100.00;66290.13;4953381;28;20274;-79
2020/12/27 09:57:53;;;;;;;1.70;1.60;;;6.10;99.90;;;-146.47;100.00;66290.13;4949277;29;20267;-79
2020/12/27 10:00:38;;;;;;;1.70;1.47;;;6.10;99.90;;;-146.47;100.00;66290.13;4949343;29;20218;-78
2020/12/27 10:03:24;;;;;;;1.87;1.60;;;6.10;99.90;;;-146.47;100.00;66290.13;4951525;29;20230;-79
2020/12/27 10:06:09;;;;;;;1.70;1.60;;;6.10;99.90;;;-146.47;100.00;66290.13;4947116;29;20691;-79
2020/12/27 10:08:54;;;;;;;1.57;1.47;;;6.10;99.90;;;-146.47;100.00;66290.13;4955451;28;20246;-78
2020/12/27 10:11:39;;;;;;;1.50;1.40;;;6.10;99.90;;;-146.47;100.00;66290.13;4949999;29;20627;-78
2020/12/27 10:14:26;;;;;;;1.50;1.40;;;6.10;99.90;;;-146.47;100.00;66290.13;4950317;28;20230;-78
2020/12/27 10:17:11;;;;;;;1.60;1.50;;;6.10;99.90;;;-146.47;100.00;66290.13;4949965;28;20689;-79
2020/12/27 10:19:58;;;;;;;1.93;1.60;;;6.10;99.90;;;-146.47;100.00;66290.13;4953334;29;20282;-79
2020/12/27 10:22:43;;;;;;;1.60;1.50;;;6.10;99.90;;;-146.47;100.00;66290.13;4947727;29;20233;-79
2020/12/27 10:25:28;;;;;;;3.07;1.60;;;7.10;99.90;;;-146.47;100.00;66290.13;4951200;29;20213;-79
2020/12/27 10:28:14;;;;;;;1.87;1.53;;;6.10;99.90;;;-146.47;100.00;66290.13;4960812;29;20253;-79
2020/12/27 10:31:00;;;;;;;2.70;1.67;;;6.20;99.90;;;-146.47;100.00;66290.13;4959867;28;20298;-79
2020/12/27 10:33:45;;;;;;;2.07;1.70;;;6.10;99.90;;;-146.47;100.00;66290.13;4966575;28;20277;-78
2020/12/27 10:36:30;;;;;;;1.80;1.67;;;6.10;99.90;;;-146.47;100.00;66290.13;4964892;29;20297;-78
2020/12/27 10:39:17;;;;;;;1.60;1.50;;;6.10;99.90;;;-146.47;100.00;66290.13;4965780;28;20234;-78
2020/12/27 10:42:02;;;;;;;1.27;1.20;;;6.10;99.90;;;-146.47;100.00;66290.13;4961858;29;20282;-79
2020/12/27 10:44:47;;;;;;;1.60;1.40;;;6.10;99.90;;;-146.47;100.00;66290.13;4970987;28;20222;-80
2020/12/27 10:47:33;;;;;;;3.67;1.40;;;6.10;99.90;;;-146.47;100.00;66290.13;4968132;29;20647;-80
2020/12/27 10:50:18;;;;;;;1.77;1.50;;;6.10;99.90;;;-146.47;100.00;66290.13;4969975;28;20203;-78
2020/12/27 10:53:04;;;;;;;1.47;1.37;;;6.10;99.90;;;-146.47;100.00;66290.13;4969668;29;20715;-79
2020/12/27 10:55:50;;;;;;;1.67;1.30;;;6.10;99.90;;;-146.47;100.00;66290.13;4966450;29;20213;-78
2020/12/27 10:58:36;;;;;;;2.37;1.33;;;6.10;99.90;;;-146.47;100.00;66290.13;4962817;29;20295;-79
2020/12/27 11:01:21;;;;;;;2.77;2.53;;;6.20;99.90;;;-146.47;100.00;66290.13;4962651;29;20240;-80
2020/12/27 11:04:07;;;;;;;1.90;1.60;;;6.10;99.90;;;-146.47;100.00;66290.13;4942891;29;20235;-79
2020/12/27 11:06:52;;;;;;;1.03;1.03;;;6.50;99.90;;;-146.47;100.00;66290.13;4949070;29;20566;-79
2020/12/27 11:09:37;;;;;;;1.50;1.40;;;6.10;99.90;;;-146.47;100.00;66290.13;4936053;28;20744;-79
2020/12/27 11:12:23;;;;;;;1.20;1.10;;;6.10;99.90;;;-146.47;100.00;66290.13;4953995;28;20254;-79
2020/12/27 11:15:08;;;;;;;2.40;1.43;;;6.10;99.90;;;-146.47;100.00;66290.13;4950404;29;20583;-79
2020/12/27 11:17:54;;;;;;;1.40;1.30;;;6.10;99.90;;;-146.47;100.00;66290.13;4934446;28;20221;-79
2020/12/27 11:20:40;;;;;;;1.20;1.20;;;6.10;99.90;;;-146.47;100.00;66290.13;4947572;28;20242;-79
2020/12/27 11:23:25;;;;;;;1.40;1.30;;;6.10;99.90;;;-146.47;100.00;66290.13;4950875;29;20598;-79
2020/12/27 11:26:10;;;;;;;1.10;1.00;;;6.10;99.90;;;-146.47;100.00;66290.13;4945973;29;20275;-79
2020/12/27 11:28:55;;;;;;;1.20;1.10;;;6.10;99.90;;;-146.47;100.00;66290.13;4945930;29;20223;-79